Hit Tracker is now ESPN Home Run Tracker! Hit Tracker founder Greg Rybarczyk is now collaborating with the ESPN Stats & Information Group to continue tracking all MLB home runs, and helping baseball fans know "How Far It Really Went!™" Please credit any information on this site to ESPN Stats & Information Group. For more information and analysis on home runs, please contact founder Greg Rybarczyk. E-Mail ESPN Home Run Tracker
Main Page | Ballparks | Park Overlays | Glossary | Highlight Homers | Feedback | Bio | 3 Types of HR's | AAA Home Run Derby Last Updated: June 23, 2017, 10:41 pm PST
If you want to know "How Far It Really Went!", then you've come to the right place! Welcome to the ESPN Home Run Tracker, where you can find accurate, transparently verifiable distances for every home run hit in MLB games. Please also check out the ESPN MLB Scoreboard throughout the 2017 season! Contact us at grybar@hittrackeronline.com.
Season:
Ballpark detail for Tropicana Field
Ballpark # of Home Runs HR per game Avg.
True
Distance
Avg.
Speed
Off
Bat
Avg.
Std.
Dist.
Tropicana Field 102 2.55 400.9 105.4 400.6

Scatter Plot of Home Runs Tropicana Field
 Overlay Ballpark:
Without range rings   With range rings

2017 Season Home Runs for Tropicana Field
Click headers to sort
Date ^ Video Path Hitter Hitter
Team
Pitcher Pitcher
Team
INN Ballpark Type/
Luck
True
Dist.
Speed
Off
Bat
Elev.
Angle
Horiz.
Angle
Apex Impact Due To: Std.
Dist.
#
Parks
Wind Temp. Alt.
06/23/17 Video View Peterson, Shane TB Jimenez, Ubaldo BAL 3 Tropicana Fi... PL 396 101.3 29.8 74.1 97 0 0 0 395 30
06/23/17 Video View Norris, Derek TB Jimenez, Ubaldo BAL 3 Tropicana Fi... JE 360 106.3 22.8 125.5 52 0 0 0 359 22
06/23/17 Video View Morrison, Logan TB Castro, Miguel BAL 7 Tropicana Fi... PL 412 103.1 28.6 79.2 99 0 1 0 412 29
06/21/17 Video View Plouffe, Trevor TB Adleman, Tim CIN 4 Tropicana Fi... PL 382 102.0 28.5 115.6 81 0 0 0 382 30
06/21/17 Video View Schebler, Scott CIN Ramirez, Erasmo TB 5 Tropicana Fi... PL 422 106.2 24.4 98.7 80 0 0 0 422 30
06/21/17 Video View Featherston, Taylor TB Storen, Drew CIN 7 Tropicana Fi... PL 382 102.1 28.5 116.3 81 0 0 0 381 30
06/20/17 Video View Sucre, Jesus TB Garrett, Amir CIN 4 Tropicana Fi... JE 344 111.4 18.6 128.7 39 0 0 0 344 1
06/20/17 Video View Dickerson, Corey TB Garrett, Amir CIN 4 Tropicana Fi... JE 395 100.6 27.6 101.8 87 0 0 0 395 27
06/20/17 Video View Votto, Joey CIN Colome, Alex TB 9 Tropicana Fi... ND 436 110.2 27.5 71.7 97 0 0 0 435 30
06/19/17 Video View Schebler, Scott CIN Odorizzi, Jake TB 5 Tropicana Fi... ND 414 107.3 29.0 66.5 96 0 0 0 414 30
06/19/17 Video View Gennett, Scooter CIN Odorizzi, Jake TB 6 Tropicana Fi... JE 404 103.4 24.6 99.7 76 0 0 0 404 23
06/19/17 Video View Robertson, Daniel Ray TB Lorenzen, Michael CIN 7 Tropicana Fi... JE 419 104.2 24.5 92.7 82 0 0 0 419 23
06/19/17 Video N/A Souza Jr., Steven TB Feldman, Scott CIN 6 Tropicana Fi... ND 0 0.0 0.0 0.0 0 0 0 0 0 0
06/11/17 Video View Rasmus, Colby TB Hendriks, Liam OAK 6 Tropicana Fi... JE 430 109.3 20.6 89.2 68 0 0 0 430 28
06/10/17 Video View Phegley, Josh OAK Hu, Chih-Wei TB 2 Tropicana Fi... JE/L 417 106.8 20.9 89.2 66 0 0 -1 417 20
06/10/17 Video View Longoria, Evan TB Manaea, Sean OAK 6 Tropicana Fi... PL 388 102.8 34.0 113.6 118 0 0 0 387 30
06/10/17 Video View Pinder, Chad OAK Stanek, Ryne TB 7 Tropicana Fi... PL 370 98.2 30.2 67.2 87 0 0 0 369 24
06/10/17 Video View Healy, Ryon OAK Stanek, Ryne TB 7 Tropicana Fi... ND 435 110.6 24.5 104.3 82 0 0 0 434 30
06/09/17 Video View Souza Jr., Steven TB Triggs, Andrew OAK 1 Tropicana Fi... ND 445 117.6 22.3 108.7 71 0 0 0 445 30
06/09/17 Video View Smith, Mallex TB Triggs, Andrew OAK 4 Tropicana Fi... PL 396 101.8 27.8 74.6 87 0 0 0 396 29
06/09/17 Video View Morrison, Logan TB Triggs, Andrew OAK 4 Tropicana Fi... JE 373 110.4 19.9 69.0 48 0 0 0 372 9
06/09/17 Video View Beckham, Tim TB Neal, Zach OAK 5 Tropicana Fi... PL 428 104.4 26.5 89.0 96 0 0 0 428 28
06/09/17 Video View Dickerson, Corey TB Neal, Zach OAK 5 Tropicana Fi... JE 427 105.4 24.7 93.0 86 0 1 0 427 27
06/09/17 Video View Vogt, Stephen OAK Garton, Ryan TB 7 Tropicana Fi... ND 419 105.5 26.8 77.3 91 0 0 0 419 29
06/08/17 Video View Norris, Derek TB Holland, Derek CHW 3 Tropicana Fi... PL 387 104.0 25.6 112.1 71 0 0 0 386 30
06/08/17 Video View Norris, Derek TB Holland, Derek CHW 4 Tropicana Fi... PL 391 102.1 25.9 105.0 76 0 0 0 391 27
06/08/17 Video View Bourjos, Peter TB Holland, Derek CHW 4 Tropicana Fi... ND 422 109.1 29.3 114.6 100 0 0 0 422 30
06/08/17 Video View Garcia, Avisail CHW Odorizzi, Jake TB 6 Tropicana Fi... PL 455 111.1 24.3 96.4 92 0 1 0 455 30
06/08/17 Video View Frazier, Todd CHW Stanek, Ryne TB 8 Tropicana Fi... ND 388 106.6 27.3 125.9 74 0 0 0 388 30
06/08/17 Video View Rasmus, Colby TB Infante, Gregory CHW 8 Tropicana Fi... ND 422 109.6 28.8 63.6 95 0 0 0 421 30
06/06/17 Video View Sanchez, Yolmer CHW Archer, Chris TB 1 Tropicana Fi... JE 367 97.8 22.0 88.3 59 0 0 0 367 0
06/06/17 Video View Garcia, Avisail CHW Archer, Chris TB 7 Tropicana Fi... ND 416 110.8 35.0 109.7 151 0 1 0 415 30
06/06/17 Video View Frazier, Todd CHW Garton, Ryan TB 9 Tropicana Fi... PL 425 103.9 27.0 89.0 98 0 1 0 425 28
05/24/17 Video View Pujols, Albert LAA Ramirez, Erasmo TB 1 Tropicana Fi... JE 393 103.0 24.9 104.3 72 0 0 0 393 26
05/24/17 Video View Souza Jr., Steven TB Nolasco, Ricky LAA 2 Tropicana Fi... JE 420 102.9 27.0 89.3 95 0 0 0 420 26
05/24/17 Video View Rasmus, Colby TB Nolasco, Ricky LAA 7 Tropicana Fi... JE 388 112.6 19.0 75.4 48 0 0 0 388 8
05/24/17 Video View Souza Jr., Steven TB Nolasco, Ricky LAA 7 Tropicana Fi... ND 397 108.2 24.9 116.7 69 0 0 0 397 30
05/23/17 Video View Trout, Mike LAA Cobb, Alex TB 1 Tropicana Fi... ND 412 112.5 22.2 110.0 63 0 0 0 413 30
05/23/17 Video View Maybin, Cameron LAA Cobb, Alex TB 1 Tropicana Fi... PL 419 112.5 21.5 104.9 63 0 0 0 419 30
05/22/17 Video View Dickerson, Corey TB Ramirez, J.C. LAA 1 Tropicana Fi... PL 393 100.8 28.9 105.0 92 0 0 0 393 30
05/22/17 Video View Morrison, Logan TB Ramirez, J.C. LAA 1 Tropicana Fi... PL 375 99.2 28.9 68.6 83 0 0 0 375 24
05/22/17 Video N/A Maybin, Cameron LAA Odorizzi, Jake TB 5 Tropicana Fi... 0 0.0 0.0 0.0 0 0 0 0 0 0
05/21/17 Video View Gardner, Brett NYY Archer, Chris TB 2 Tropicana Fi... JE 352 94.7 30.7 67.0 83 0 0 0 352 8
05/21/17 Video View Norris, Derek TB Sabathia, CC NYY 5 Tropicana Fi... PL 381 108.5 22.9 118.1 58 0 0 0 381 30
05/20/17 Video View Dickerson, Corey TB Tanaka, Masahiro NYY 1 Tropicana Fi... JE 392 99.1 29.5 100.9 96 0 1 0 391 17
05/20/17 Video View Judge, Aaron NYY Andriese, Matt TB 2 Tropicana Fi... PL 384 102.9 25.4 70.4 70 0 0 0 384 27
05/20/17 Video View Longoria, Evan TB Tanaka, Masahiro NYY 3 Tropicana Fi... PL 380 106.4 23.9 117.3 61 0 0 0 379 30
05/20/17 Video View Dickerson, Corey TB Tanaka, Masahiro NYY 4 Tropicana Fi... ND 447 111.8 27.9 73.0 105 0 0 0 447 30
05/20/17 Video View Sanchez, Gary NYY Andriese, Matt TB 5 Tropicana Fi... JE 427 105.8 24.1 93.8 83 0 0 0 427 28
05/19/17 Video View Holliday, Matt NYY Stanek, Ryne TB 8 Tropicana Fi... PL 371 98.4 27.6 71.6 76 0 0 0 371 14
05/11/17 Video View Merrifield, Whit KC Odorizzi, Jake TB 4 Tropicana Fi... ND 419 108.9 29.3 116.3 97 0 0 0 418 30
05/10/17 Video View Morrison, Logan TB Hammel, Jason KC 3 Tropicana Fi... PL 444 107.5 25.5 89.1 96 0 0 0 444 30
05/10/17 Video View Weeks, Rickie TB Hammel, Jason KC 3 Tropicana Fi... PL 393 107.7 23.5 111.9 64 0 0 0 393 30
05/10/17 Video View Rasmus, Colby TB Moylan, Peter KC 8 Tropicana Fi... JE 383 102.4 23.9 104.8 66 0 0 0 382 11
05/09/17 Video View Morrison, Logan TB Young, Chris KC 1 Tropicana Fi... ND 421 110.2 30.9 59.5 106 0 1 0 420 30
05/09/17 Video View Perez, Salvador KC Andriese, Matt TB 6 Tropicana Fi... ND 400 104.9 30.0 115.7 95 0 0 0 400 30
05/09/17 Video View Miller, Brad TB Wood, Travis KC 6 Tropicana Fi... JE 340 95.0 30.0 56.6 72 0 0 0 339 13
05/09/17 Video View Moustakas, Mike KC Moreno, Diego TB 12 Tropicana Fi... PL 397 108.8 21.6 74.5 59 0 0 0 397 26
05/08/17 Video View Butera, Drew KC Snell, Blake TB 3 Tropicana Fi... PL 376 100.5 34.0 115.8 110 0 1 0 375 30
05/08/17 Video View Rasmus, Colby TB Strahm, Matt KC 8 Tropicana Fi... JE 418 102.7 27.0 89.8 95 0 0 0 418 26
05/07/17 Video View Barney, Darwin TOR Cobb, Alex TB 8 Tropicana Fi... ND 407 106.1 26.4 109.5 81 0 0 0 407 30
05/06/17 Video View Carrera, Ezequiel TOR Odorizzi, Jake TB 1 Tropicana Fi... ITP/L 380 98.8 26.7 77.2 77 0 0 0 380 6
05/06/17 Video View Morrison, Logan TB Estrada, Marco TOR 3 Tropicana Fi... PL 399 100.4 30.1 80.1 103 0 0 0 399 27
05/06/17 Video View Rasmus, Colby TB Estrada, Marco TOR 6 Tropicana Fi... ND 413 107.5 24.6 73.8 75 0 0 0 413 30
05/05/17 Video View Norris, Derek TB Liriano, Francisco TOR 4 Tropicana Fi... JE 423 107.4 21.5 92.5 70 0 0 0 423 26
05/05/17 Video View Morales, Kendrys TOR Archer, Chris TB 7 Tropicana Fi... ND 411 107.7 34.2 71.1 138 0 0 0 411 30
05/05/17 Video View Morales, Kendrys TOR Diaz, Jumbo TB 8 Tropicana Fi... PL 390 110.6 22.4 63.2 58 0 0 0 390 30
05/05/17 Video View Smoak, Justin TOR Marks, Justin TB 8 Tropicana Fi... PL 425 104.5 28.4 97.8 104 0 1 0 424 30
05/05/17 Video N/A Robertson, Daniel TB Liriano, Francisco TOR 4 Tropicana Fi... 0 0.0 0.0 0.0 0 0 0 0 0 0
05/04/17 Video View Beckham, Tim TB Straily, Dan MIA 2 Tropicana Fi... JE 411 102.2 27.8 97.9 95 0 1 0 410 28
05/04/17 Video View Beckham, Tim TB Straily, Dan MIA 4 Tropicana Fi... PL 411 104.0 29.8 105.4 104 0 0 0 411 30
05/03/17 Video View Robertson, Daniel TB Conley, Adam MIA 4 Tropicana Fi... JE 425 110.1 19.4 90.7 62 0 0 0 424 26
05/03/17 Video View Ozuna, Marcell MIA Snell, Blake TB 4 Tropicana Fi... ND 467 117.2 28.4 111.3 114 0 1 0 466 30
04/23/17 Video View Souza Jr., Steven TB Musgrove, Joe HOU 1 Tropicana Fi... ND 370 111.6 21.2 129.5 49 0 0 0 370 29
04/23/17 Video View Correa, Carlos HOU Andriese, Matt TB 3 Tropicana Fi... PL 372 98.3 28.5 70.4 80 0 0 0 371 20
04/23/17 Video View Altuve, Jose HOU Andriese, Matt TB 5 Tropicana Fi... JE 397 112.4 19.7 105.1 52 0 0 0 396 23
04/22/17 Video View Gattis, Evan HOU Snell, Blake TB 2 Tropicana Fi... PL 415 105.0 24.4 81.3 79 0 0 0 414 28
04/22/17 Video View Altuve, Jose HOU Snell, Blake TB 4 Tropicana Fi... PL 423 105.1 27.8 100.5 98 0 1 0 422 30
04/21/17 Video View Dickerson, Corey TB Fiers, Mike HOU 1 Tropicana Fi... ND 445 117.1 26.4 58.6 86 0 0 0 444 30
04/21/17 Video View Beltran, Carlos HOU Cobb, Alex TB 2 Tropicana Fi... PL 409 103.5 26.4 78.7 86 0 0 0 409 29
04/21/17 Video View Morrison, Logan TB Fiers, Mike HOU 2 Tropicana Fi... JE 404 112.1 19.1 79.9 53 0 0 -1 404 18
04/21/17 Video View Longoria, Evan TB Fiers, Mike HOU 3 Tropicana Fi... JE 415 105.7 23.7 98.5 76 0 0 0 415 28
04/20/17 Video View Kinsler, Ian DET Ramirez, Erasmo TB 1 Tropicana Fi... JE 343 98.1 26.7 124.3 61 0 0 0 343 6
04/20/17 Video View Kiermaier, Kevin TB Saupold, Warwick DET 7 Tropicana Fi... JE 416 102.0 28.6 87.4 103 0 0 0 416 26
04/20/17 Video View Robertson, Daniel TB Saupold, Warwick DET 8 Tropicana Fi... ND 397 106.6 26.2 116.3 75 0 0 0 396 30
04/20/17 Video View Souza Jr., Steven TB Saupold, Warwick DET 8 Tropicana Fi... JE 349 114.4 17.8 128.5 37 0 0 0 349 5
04/18/17 Video View Cabrera, Miguel DET Andriese, Matt TB 1 Tropicana Fi... PL 441 109.8 21.7 91.6 75 0 0 0 440 29
04/18/17 Video View Beckham, Tim TB Fulmer, Michael DET 3 Tropicana Fi... PL 406 104.2 27.2 106.4 86 0 0 0 405 30
04/09/17 Video View Sucre, Jesus TB Estrada, Marco TOR 4 Tropicana Fi... PL 388 99.2 31.6 103.4 106 0 1 0 388 25
04/09/17 Video View Souza Jr., Steven TB Estrada, Marco TOR 3 Tropicana Fi... PL 359 98.5 36.9 112.3 126 0 1 0 358 16
04/09/17 Video View Dickerson, Corey TB Estrada, Marco TOR 3 Tropicana Fi... JE 326 90.9 34.7 121.1 88 0 0 0 325 0
04/09/17 Video View Donaldson, Josh TOR Odorizzi, Jake TB 1 Tropicana Fi... JE 350 98.6 26.4 60.9 63 0 0 0 350 8
04/07/17 Video View Donaldson, Josh TOR Farquhar, Danny TB 8 Tropicana Fi... JE 415 104.4 24.1 84.2 79 0 0 0 415 21
04/07/17 Video View Tulowitzki, Troy TOR Andriese, Matt TB 4 Tropicana Fi... JE 364 99.8 24.7 71.8 63 0 0 0 364 1
04/07/17 Video View Longoria, Evan TB Liriano, Francisco TOR 1 Tropicana Fi... ND 409 108.9 26.8 118.0 80 0 0 0 409 30
04/06/17 Video View Morales, Kendrys TOR Snell, Blake TB 3 Tropicana Fi... ND 447 112.2 23.9 101.7 84 0 0 0 447 30
04/05/17 Video View Ellsbury, Jacoby NYY Cobb, Alex TB 2 Tropicana Fi... PL 374 98.2 34.3 73.5 116 0 0 0 373 23
04/05/17 Video View Dickerson, Corey TB Pineda, Michael NYY 1 Tropicana Fi... PL 428 106.5 24.4 96.7 83 0 0 0 427 29
04/04/17 Video View Headley, Chase NYY Odorizzi, Jake TB 6 Tropicana Fi... JE 417 103.8 24.1 89.2 80 0 0 0 417 23
04/04/17 Video View Torreyes, Ronald NYY Odorizzi, Jake TB 3 Tropicana Fi... PL 400 104.3 28.1 111.3 87 0 0 0 400 30
04/02/17 Video View Morrison, Logan TB Tanaka, Masahiro NYY 3 Tropicana Fi... PL 414 102.6 28.7 82.5 102 0 1 0 414 28
04/02/17 Video View Longoria, Evan TB Tanaka, Masahiro NYY 2 Tropicana Fi... JE 346 108.3 20.3 127.0 43 0 -1 -1 347 5


About HitTracker | Contact Us
© 2006-2017 HitTrackerOnline